Time;durP1;ratioP1;P1;durP2;ratioP2;P2;SDS_P1;SDS_P2;PMS_P1;PMS_P2;Temp;Humidity;BMP_temperature;BMP_pressure;BME280_temperature;BME280_humidity;BME280_pressure;Samples;Min_cycle;Max_cycle;Signal;HPM_P1;HPM_P2
2022/01/09 00:01:39;;;;;;;41.38;11.60;;;;;;;3.04;100.00;100051.25;4978247;28;20139;-75
2022/01/09 00:04:05;;;;;;;55.33;13.95;;;;;;;3.04;100.00;100033.13;4979262;28;20111;-71
2022/01/09 00:06:30;;;;;;;64.05;11.90;;;;;;;3.24;100.00;100049.16;4980719;28;20050;-71
2022/01/09 00:08:56;;;;;;;33.53;12.02;;;;;;;3.07;100.00;100022.84;4983973;28;20046;-73
2022/01/09 00:11:25;;;;;;;39.75;12.60;;;;;;;3.10;100.00;100020.31;4984689;28;20026;-71
2022/01/09 00:13:51;;;;;;;48.50;11.98;;;;;;;3.02;100.00;100019.25;4983912;28;20057;-72
2022/01/09 00:18:48;;;;;;;55.50;11.45;;;;;;;3.16;100.00;100025.63;5047419;27;20611;-72
2022/01/09 00:21:14;;;;;;;53.40;14.48;;;;;;;3.15;100.00;100031.66;5012571;28;20124;-73
2022/01/09 00:23:41;;;;;;;49.55;11.35;;;;;;;3.01;100.00;100023.56;5012969;28;20041;-72
2022/01/09 00:26:07;;;;;;;38.70;11.98;;;;;;;3.02;100.00;100014.97;5026055;28;20368;-71
2022/01/09 00:28:33;;;;;;;41.13;13.00;;;;;;;3.31;100.00;100000.06;5016885;28;20459;-71
2022/01/09 00:30:59;;;;;;;45.75;12.73;;;;;;;3.27;100.00;100012.91;5013744;28;20038;-73
2022/01/09 00:33:24;;;;;;;34.55;10.43;;;;;;;3.25;100.00;100019.78;5046042;28;20046;-74
2022/01/09 00:35:50;;;;;;;33.65;11.98;;;;;;;3.32;100.00;100017.34;5013445;28;20092;-70
2022/01/09 00:38:17;;;;;;;81.07;13.07;;;;;;;3.44;100.00;100015.88;5014376;28;20029;-71
2022/01/09 00:40:43;;;;;;;47.90;12.68;;;;;;;3.37;100.00;100017.47;5013802;28;20054;-71
2022/01/09 00:43:09;;;;;;;47.38;11.00;;;;;;;3.30;100.00;100011.28;5012048;28;20048;-71
2022/01/09 00:45:39;;;;;;;26.40;10.30;;;;;;;3.21;100.00;99998.13;5011170;28;20045;-72
2022/01/09 00:48:06;;;;;;;41.42;12.38;;;;;;;3.30;100.00;100008.69;5014830;28;20042;-71
2022/01/09 00:50:33;;;;;;;38.72;13.10;;;;;;;3.21;100.00;99985.16;5013840;28;20038;-70
2022/01/09 00:52:58;;;;;;;48.78;10.80;;;;;;;3.29;100.00;100006.06;5008198;28;20024;-70
2022/01/09 00:55:24;;;;;;;43.20;10.68;;;;;;;3.22;100.00;99980.84;5009906;28;20053;-72
2022/01/09 00:57:49;;;;;;;39.53;11.50;;;;;;;3.15;100.00;99972.91;5013252;28;20041;-72
2022/01/09 01:00:15;;;;;;;36.50;10.05;;;;;;;3.49;100.00;99977.94;5011754;28;20042;-72
2022/01/09 01:02:41;;;;;;;31.60;11.35;;;;;;;3.64;100.00;99990.41;5012556;28;20034;-70
2022/01/09 01:05:08;;;;;;;39.15;11.07;;;;;;;3.47;100.00;99983.13;5007601;28;20029;-70
2022/01/09 01:07:34;;;;;;;104.60;17.20;;;;;;;3.44;100.00;99983.06;5011715;28;20060;-72
2022/01/09 01:09:59;;;;;;;32.28;10.05;;;;;;;3.21;100.00;99961.81;5011695;28;20045;-71
2022/01/09 01:12:29;;;;;;;66.32;15.23;;;;;;;3.36;100.00;99982.00;5010671;28;20056;-71
2022/01/09 01:14:55;;;;;;;53.13;10.82;;;;;;;3.30;100.00;99987.97;5011214;28;20129;-72
2022/01/09 01:17:22;;;;;;;69.35;15.57;;;;;;;3.30;100.00;99961.13;5012684;28;20132;-71
2022/01/09 01:19:47;;;;;;;50.90;12.27;;;;;;;3.33;100.00;99976.78;5013046;28;20058;-72
2022/01/09 01:22:14;;;;;;;42.15;11.32;;;;;;;3.36;100.00;99979.41;5013738;28;20053;-72
2022/01/09 01:24:41;;;;;;;27.35;9.93;;;;;;;3.23;100.00;99964.44;5012929;28;20128;-71
2022/01/09 01:27:06;;;;;;;143.60;18.13;;;;;;;3.31;100.00;99971.53;5009328;28;20034;-71
2022/01/09 01:29:32;;;;;;;54.95;10.30;;;;;;;3.23;100.00;99960.16;4999941;28;20030;-71
2022/01/09 01:31:58;;;;;;;40.10;10.32;;;;;;;3.28;100.00;99955.06;4998721;28;20436;-70
2022/01/09 01:34:23;;;;;;;50.70;9.88;;;;;;;3.47;100.00;99980.53;4997609;28;20560;-72
2022/01/09 01:36:49;;;;;;;61.38;11.50;;;;;;;3.62;100.00;99976.50;4998502;28;20458;-72
2022/01/09 01:39:14;;;;;;;28.00;8.60;;;;;;;3.73;100.00;99949.94;5000788;28;20048;-71
2022/01/09 01:41:40;;;;;;;98.10;13.68;;;;;;;3.64;100.00;99967.06;5001173;28;20045;-72
2022/01/09 01:44:10;;;;;;;45.30;8.90;;;;;;;3.37;100.00;99956.13;4999457;28;20049;-72
2022/01/09 01:46:36;;;;;;;59.92;9.65;;;;;;;3.43;100.00;99932.03;4999430;28;20465;-74
2022/01/09 01:49:02;;;;;;;66.53;12.02;;;;;;;3.67;100.00;99943.75;4995087;28;20050;-72
2022/01/09 01:51:29;;;;;;;42.33;9.88;;;;;;;3.60;100.00;99953.13;4995952;28;20041;-72
2022/01/09 01:53:56;;;;;;;24.80;6.85;;;;;;;3.53;100.00;99935.69;4999029;28;20049;-71
2022/01/09 01:56:23;;;;;;;31.60;8.27;;;;;;;3.45;100.00;99930.34;5000683;28;20113;-71
2022/01/09 01:58:51;;;;;;;21.35;8.00;;;;;;;3.33;100.00;99904.16;4996760;28;20466;-70
2022/01/09 02:01:17;;;;;;;37.47;9.95;;;;;;;3.75;100.00;99919.72;4998409;28;20034;-71
2022/01/09 02:03:43;;;;;;;94.32;10.05;;;;;;;3.72;100.00;99922.25;4996871;28;20501;-72
2022/01/09 02:06:10;;;;;;;31.05;8.27;;;;;;;3.96;100.00;99923.56;4999896;28;20052;-72
2022/01/09 02:08:36;;;;;;;23.35;8.07;;;;;;;3.93;100.00;99920.91;4998972;28;20136;-73
2022/01/09 02:11:01;;;;;;;88.78;9.73;;;;;;;3.87;100.00;99920.81;4998025;28;20046;-71
2022/01/09 02:13:27;;;;;;;8.85;6.82;;;;;;;3.67;100.00;99908.28;4999342;28;20061;-71
2022/01/09 02:15:57;;;;;;;20.27;8.05;;;;;;;3.38;100.00;99906.00;4999466;28;20419;-71
2022/01/09 02:18:23;;;;;;;34.13;7.35;;;;;;;3.44;100.00;99892.31;4997666;28;20480;-70
2022/01/09 02:20:50;;;;;;;38.67;8.48;;;;;;;3.50;100.00;99888.94;4998463;28;20499;-71
2022/01/09 02:23:18;;;;;;;35.55;8.45;;;;;;;3.42;100.00;99887.91;4997952;28;20037;-71
2022/01/09 02:25:46;;;;;;;19.75;7.57;;;;;;;3.29;100.00;99879.00;4997582;28;20150;-73
2022/01/09 02:28:13;;;;;;;18.48;8.30;;;;;;;3.39;100.00;99886.13;5010868;28;20068;-71
2022/01/09 02:30:40;;;;;;;22.35;7.72;;;;;;;3.51;100.00;99881.22;5012062;28;20096;-71
2022/01/09 02:33:09;;;;;;;38.70;9.60;;;;;;;3.25;100.00;99866.81;4998866;28;20910;-71
2022/01/09 02:35:35;;;;;;;41.97;9.55;;;;;;;3.39;100.00;99867.97;4995555;28;20026;-72
2022/01/09 02:38:04;;;;;;;20.33;9.43;;;;;;;3.36;100.00;99870.50;4998840;28;20037;-73
2022/01/09 02:40:30;;;;;;;15.80;8.13;;;;;;;3.59;100.00;99868.38;4995780;28;20053;-72
2022/01/09 02:42:56;;;;;;;54.42;9.55;;;;;;;3.66;100.00;99841.72;4996797;28;20439;-71
2022/01/09 02:45:23;;;;;;;23.70;8.02;;;;;;;3.26;100.00;99838.34;4998331;28;20041;-73
2022/01/09 02:47:50;;;;;;;18.55;8.77;;;;;;;3.33;100.00;99842.81;4997590;28;20034;-72
2022/01/09 02:52:52;;;;;;;35.67;7.60;;;;;;;3.16;100.00;99838.97;4993862;28;20041;-71
2022/01/09 02:55:19;;;;;;;11.00;7.82;;;;;;;3.23;100.00;99843.47;4999000;28;20077;-71
2022/01/09 02:57:47;;;;;;;24.45;7.57;;;;;;;3.03;100.00;99816.28;4995634;28;20137;-71
2022/01/09 03:00:22;;;;;;;23.35;9.65;;;;;;;3.24;100.00;99834.84;4995774;28;20141;-73
2022/01/09 03:02:47;;;;;;;33.45;9.55;;;;;;;3.12;100.00;99830.28;4997334;28;20121;-72
2022/01/09 03:05:13;;;;;;;17.05;8.68;;;;;;;3.09;100.00;99804.31;4996748;28;20030;-72
2022/01/09 03:07:40;;;;;;;12.45;8.50;;;;;;;3.23;100.00;99824.44;5028535;28;20061;-72
2022/01/09 03:10:07;;;;;;;16.67;6.85;;;;;;;3.40;100.00;99817.88;4998088;28;20050;-71
2022/01/09 03:12:33;;;;;;;39.22;8.77;;;;;;;3.30;100.00;99811.66;4997988;28;20061;-73
2022/01/09 03:14:59;;;;;;;53.20;10.10;;;;;;;3.51;100.00;99818.06;4995600;28;20105;-72
2022/01/09 03:17:25;;;;;;;78.47;12.05;;;;;;;3.67;100.00;99821.81;4996384;28;20377;-71
2022/01/09 03:19:50;;;;;;;56.95;12.85;;;;;;;3.66;100.00;99818.34;4996208;28;20531;-71
2022/01/09 03:22:16;;;;;;;23.92;8.90;;;;;;;3.42;100.00;99795.44;4996400;28;20091;-72
2022/01/09 03:24:42;;;;;;;34.33;10.35;;;;;;;3.46;100.00;99806.72;5009923;28;20069;-72
2022/01/09 03:27:09;;;;;;;34.67;10.68;;;;;;;3.46;100.00;99805.00;5012466;28;20048;-72
2022/01/09 03:29:34;;;;;;;17.67;9.63;;;;;;;3.38;100.00;99781.53;4997969;28;20378;-71
2022/01/09 03:32:00;;;;;;;16.95;6.78;;;;;;;3.29;100.00;99775.31;4997782;28;20088;-71
2022/01/09 03:34:26;;;;;;;22.55;10.23;;;;;;;3.50;100.00;99795.56;4994354;28;20366;-72
2022/01/09 03:36:51;;;;;;;62.88;12.65;;;;;;;3.73;100.00;99770.91;4994503;28;20120;-71
2022/01/09 03:39:17;;;;;;;43.80;12.32;;;;;;;3.88;100.00;99777.22;4997012;28;20192;-72
2022/01/09 03:41:42;;;;;;;47.30;11.52;;;;;;;3.84;100.00;99765.03;4997708;28;20496;-72
2022/01/09 03:44:08;;;;;;;24.38;9.63;;;;;;;3.58;100.00;99775.81;4998578;28;20030;-75
2022/01/09 03:46:34;;;;;;;24.83;10.23;;;;;;;3.78;100.00;99763.22;4997467;28;20053;-72
2022/01/09 03:48:59;;;;;;;40.40;9.18;;;;;;;4.25;100.00;99778.66;4995257;28;20465;-71
2022/01/09 03:51:31;;;;;;;50.30;11.40;;;;;;;4.23;100.00;99763.06;4992685;28;20076;-72
2022/01/09 03:53:57;;;;;;;20.77;10.35;;;;;;;4.18;99.41;99754.31;4996402;28;20030;-72
2022/01/09 03:56:22;;;;;;;15.25;9.65;;;;;;;4.45;98.58;99768.59;4997023;28;20029;-71
2022/01/09 03:58:48;;;;;;;33.45;9.55;;;;;;;4.07;98.14;99776.66;5008409;28;20054;-72
2022/01/09 04:01:13;;;;;;;43.83;10.50;;;;;;;3.90;98.60;99759.94;4998423;28;20082;-71
2022/01/09 04:03:39;;;;;;;56.72;11.85;;;;;;;3.94;99.11;99764.34;4998430;28;20409;-72
2022/01/09 04:06:04;;;;;;;15.00;10.57;;;;;;;4.35;99.21;99767.56;4995997;28;20049;-71
2022/01/09 04:08:31;;;;;;;20.65;10.13;;;;;;;4.42;98.61;99764.22;4996716;28;20026;-75
2022/01/09 04:10:56;;;;;;;42.05;12.15;;;;;;;4.52;98.23;99774.72;4996337;28;20399;-72
2022/01/09 04:13:23;;;;;;;80.28;11.38;;;;;;;4.46;97.77;99780.72;4996159;28;20046;-72
2022/01/09 04:15:49;;;;;;;53.40;10.07;;;;;;;4.53;97.40;99773.88;4994120;28;20130;-71
2022/01/09 04:18:22;;;;;;;16.00;9.13;;;;;;;4.22;97.16;99758.72;4994541;28;20049;-71
2022/01/09 04:20:49;;;;;;;122.82;15.45;;;;;;;4.46;97.59;99782.44;4996808;28;20092;-71
2022/01/09 04:23:16;;;;;;;48.30;11.55;;;;;;;4.26;97.61;99788.22;4997010;28;20045;-71
2022/01/09 04:25:42;;;;;;;41.10;13.10;;;;;;;4.45;97.68;99773.78;4995693;28;20117;-70
2022/01/09 04:28:10;;;;;;;28.42;12.10;;;;;;;4.42;97.28;99785.00;4993283;28;20173;-72
2022/01/09 04:30:36;;;;;;;46.50;12.50;;;;;;;4.40;97.06;99784.09;4995157;28;20046;-70
2022/01/09 04:33:02;;;;;;;68.47;13.57;;;;;;;4.29;97.05;99792.59;5008095;28;20049;-70
2022/01/09 04:35:27;;;;;;;54.42;12.82;;;;;;;4.39;96.99;99779.75;4995114;28;20052;-71
2022/01/09 04:37:54;;;;;;;27.35;11.75;;;;;;;4.22;97.35;99771.72;4998211;28;20072;-72
2022/01/09 04:40:20;;;;;;;62.85;11.25;;;;;;;4.09;98.01;99803.50;4997752;28;20069;-73
2022/01/09 04:42:50;;;;;;;26.15;10.80;;;;;;;3.75;98.56;99782.19;5007654;28;20172;-71
2022/01/09 04:45:17;;;;;;;21.90;10.80;;;;;;;3.68;99.43;99782.06;4994718;28;20262;-72
2022/01/09 04:47:46;;;;;;;113.80;13.52;;;;;;;3.84;99.81;99781.50;4993586;28;20041;-72
2022/01/09 04:50:17;;;;;;;48.03;12.38;;;;;;;4.06;99.66;99784.44;4995626;28;20025;-71
2022/01/09 04:52:43;;;;;;;20.80;10.35;;;;;;;4.23;99.59;99793.34;4994031;28;20038;-72
2022/01/09 04:55:11;;;;;;;76.53;14.00;;;;;;;4.11;99.35;99795.75;4996768;28;20899;-71
2022/01/09 04:57:36;;;;;;;28.95;10.20;;;;;;;3.97;99.37;99785.16;4996460;28;20050;-72
2022/01/09 05:00:05;;;;;;;29.95;10.13;;;;;;;3.62;99.92;99767.25;4996131;28;20040;-72
2022/01/09 05:02:30;;;;;;;31.55;11.02;;;;;;;3.79;100.00;99781.41;5026147;28;20038;-71
2022/01/09 05:04:56;;;;;;;32.55;9.85;;;;;;;3.85;100.00;99779.75;4998292;28;20057;-72
2022/01/09 05:07:21;;;;;;;50.70;14.70;;;;;;;4.01;100.00;99766.19;5001146;28;20108;-71
2022/01/09 05:09:46;;;;;;;64.72;13.52;;;;;;;3.71;100.00;99758.78;5000013;28;20049;-76
2022/01/09 05:12:12;;;;;;;93.93;13.82;;;;;;;3.91;100.00;99762.56;5000555;28;21377;-71
2022/01/09 05:14:37;;;;;;;65.25;12.98;;;;;;;4.07;100.00;99766.25;4999503;28;20050;-71
2022/01/09 05:17:03;;;;;;;69.80;13.13;;;;;;;4.18;100.00;99767.31;4999531;28;20052;-71
2022/01/09 05:19:31;;;;;;;52.47;13.43;;;;;;;4.11;100.00;99767.19;4997546;28;20524;-75
2022/01/09 05:21:57;;;;;;;108.82;13.30;;;;;;;4.29;100.00;99771.81;5030115;28;20088;-71
2022/01/09 05:24:23;;;;;;;40.28;15.30;;;;;;;3.95;100.00;99768.69;5000111;28;20048;-69
2022/01/09 05:26:49;;;;;;;71.53;14.55;;;;;;;4.33;100.00;99784.88;4997940;28;20030;-70
2022/01/09 05:29:14;;;;;;;35.75;12.93;;;;;;;4.31;100.00;99773.56;4998267;28;20034;-71
2022/01/09 05:31:40;;;;;;;53.50;12.57;;;;;;;4.51;99.93;99786.84;5000654;28;20389;-72
2022/01/09 05:34:06;;;;;;;52.17;12.10;;;;;;;4.47;99.37;99785.03;4998080;28;20039;-70
2022/01/09 05:36:33;;;;;;;35.92;12.32;;;;;;;4.06;99.49;99776.66;4996816;28;21179;-71
2022/01/09 05:38:58;;;;;;;45.05;13.68;;;;;;;4.11;99.81;99762.88;5029823;28;20418;-72
2022/01/09 05:41:25;;;;;;;74.45;12.80;;;;;;;3.86;100.00;99771.97;4998633;28;20099;-71
2022/01/09 05:43:50;;;;;;;50.88;12.35;;;;;;;3.76;100.00;99775.28;4996463;28;20049;-74
2022/01/09 05:46:16;;;;;;;67.93;12.38;;;;;;;3.96;100.00;99792.06;4998571;28;20105;-71
2022/01/09 05:48:41;;;;;;;234.35;18.23;;;;;;;4.05;100.00;99775.78;4998815;28;21480;-73
2022/01/09 05:51:07;;;;;;;71.57;13.27;;;;;;;3.91;100.00;99766.88;4994712;28;20049;-71
2022/01/09 05:53:32;;;;;;;66.72;12.65;;;;;;;3.97;100.00;99785.16;4996611;28;20449;-71
2022/01/09 05:55:57;;;;;;;36.10;12.05;;;;;;;4.01;100.00;99784.34;4995718;28;20414;-70
2022/01/09 05:58:23;;;;;;;81.75;13.30;;;;;;;4.30;100.00;99796.91;4997826;28;20093;-70
2022/01/09 06:00:48;;;;;;;60.70;14.90;;;;;;;4.35;100.00;99783.13;4995330;28;20469;-71
2022/01/09 06:03:14;;;;;;;62.90;14.45;;;;;;;4.68;99.91;99810.47;4991051;28;20528;-71
2022/01/09 06:05:39;;;;;;;123.18;14.38;;;;;;;4.58;99.15;99788.66;4990436;28;20026;-72
2022/01/09 06:08:05;;;;;;;80.35;15.77;;;;;;;4.69;98.61;99809.63;4991009;28;20061;-72
2022/01/09 06:10:30;;;;;;;99.03;14.23;;;;;;;4.63;97.88;99780.94;4985269;28;20049;-72
2022/01/09 06:12:56;;;;;;;84.72;13.02;;;;;;;4.76;97.61;99788.06;4990481;28;20046;-72
2022/01/09 06:15:21;;;;;;;21.35;11.15;;;;;;;4.88;97.36;99799.47;4988824;28;20050;-73
2022/01/09 06:17:47;;;;;;;204.98;19.58;;;;;;;4.84;96.83;99803.75;4990735;28;20868;-71
2022/01/09 06:20:14;;;;;;;135.30;15.32;;;;;;;4.82;96.98;99795.06;4988258;28;20469;-71
2022/01/09 06:22:41;;;;;;;60.63;13.27;;;;;;;4.90;97.01;99802.97;4990805;28;20046;-72
2022/01/09 06:25:07;;;;;;;160.02;18.45;;;;;;;4.81;97.05;99799.38;4989431;28;20034;-70
2022/01/09 06:27:32;;;;;;;118.18;14.95;;;;;;;4.78;97.72;99782.91;4989505;28;20111;-71
2022/01/09 06:29:58;;;;;;;82.15;13.93;;;;;;;4.89;97.20;99790.81;4991024;28;20084;-71
2022/01/09 06:32:23;;;;;;;34.47;11.57;;;;;;;4.86;96.90;99802.91;4992519;28;20096;-72
2022/01/09 06:34:49;;;;;;;53.55;10.63;;;;;;;4.70;96.86;99794.91;4985618;28;20054;-72
2022/01/09 06:37:15;;;;;;;69.10;11.25;;;;;;;4.74;97.15;99792.34;4986914;28;20054;-72
2022/01/09 06:39:41;;;;;;;79.95;12.52;;;;;;;4.72;97.07;99788.00;4989639;28;20070;-70
2022/01/09 06:42:07;;;;;;;135.77;13.70;;;;;;;4.76;96.89;99780.25;4988580;28;20117;-71
2022/01/09 06:44:32;;;;;;;185.73;19.90;;;;;;;4.79;96.80;99784.63;4991114;28;20093;-71
2022/01/09 06:46:58;;;;;;;33.03;10.40;;;;;;;4.83;97.08;99789.03;4989603;28;20104;-74
2022/01/09 06:49:25;;;;;;;107.78;13.52;;;;;;;4.92;96.52;99785.69;4987792;28;20378;-69
2022/01/09 06:51:51;;;;;;;162.05;15.90;;;;;;;4.72;96.54;99794.06;4986428;28;20489;-70
2022/01/09 06:54:16;;;;;;;124.40;14.80;;;;;;;4.59;97.24;99790.44;4989727;28;20050;-70
2022/01/09 06:56:42;;;;;;;174.88;15.27;;;;;;;4.67;98.11;99784.47;4992446;28;20030;-70
2022/01/09 06:59:08;;;;;;;120.15;12.77;;;;;;;4.70;98.13;99761.97;4992448;28;20034;-70
2022/01/09 07:01:33;;;;;;;45.50;10.52;;;;;;;4.42;97.83;99764.22;4988988;28;20035;-73
2022/01/09 07:03:59;;;;;;;52.75;11.60;;;;;;;4.36;98.52;99763.25;4988366;28;20034;-74
2022/01/09 07:06:24;;;;;;;44.45;12.20;;;;;;;4.23;99.08;99776.03;4988327;28;20457;-71
2022/01/09 07:08:50;;;;;;;36.58;11.70;;;;;;;4.05;99.86;99774.88;4991579;28;20465;-72
2022/01/09 07:11:15;;;;;;;39.00;11.10;;;;;;;4.10;100.00;99779.31;4991948;28;20034;-71
2022/01/09 07:13:41;;;;;;;76.38;13.00;;;;;;;4.00;100.00;99754.94;4990979;28;20046;-71
2022/01/09 07:16:06;;;;;;;93.43;12.30;;;;;;;4.09;100.00;99758.50;4988896;28;20362;-71
2022/01/09 07:18:32;;;;;;;62.47;12.88;;;;;;;4.20;100.00;99756.97;4990464;28;20041;-74
2022/01/09 07:20:57;;;;;;;154.05;17.45;;;;;;;4.37;100.00;99755.47;4986315;28;20104;-71
2022/01/09 07:23:23;;;;;;;27.60;13.25;;;;;;;4.70;100.00;99767.19;4987570;28;20224;-72
2022/01/09 07:25:48;;;;;;;55.15;14.27;;;;;;;4.51;100.00;99744.41;4986911;28;20062;-71
2022/01/09 07:28:14;;;;;;;65.45;13.05;;;;;;;4.10;100.00;99765.47;4990887;28;20049;-71
2022/01/09 07:30:39;;;;;;;106.25;12.82;;;;;;;4.26;100.00;99772.66;4987122;28;20129;-73
2022/01/09 07:33:05;;;;;;;89.20;13.60;;;;;;;4.27;100.00;99748.41;4989769;28;20064;-71
2022/01/09 07:35:31;;;;;;;101.45;12.90;;;;;;;4.33;100.00;99758.00;4984474;28;20041;-71
2022/01/09 07:37:57;;;;;;;34.22;11.45;;;;;;;4.54;100.00;99736.66;4987964;28;20038;-72
2022/01/09 07:40:23;;;;;;;55.28;11.85;;;;;;;4.42;100.00;99735.66;4993886;28;20149;-71
2022/01/09 07:42:49;;;;;;;42.92;12.93;;;;;;;4.41;100.00;99746.00;4990347;28;20042;-71
2022/01/09 07:45:19;;;;;;;46.47;11.77;;;;;;;4.47;100.00;99755.59;4988146;28;20046;-71
2022/01/09 07:47:44;;;;;;;73.35;12.68;;;;;;;4.45;100.00;99755.59;4988960;28;20123;-72
2022/01/09 07:50:11;;;;;;;63.25;12.45;;;;;;;4.37;100.00;99750.28;4986282;28;20464;-73
2022/01/09 07:52:38;;;;;;;32.13;12.75;;;;;;;4.31;100.00;99752.81;4995488;28;20046;-72
2022/01/09 07:55:05;;;;;;;120.13;14.55;;;;;;;4.39;100.00;99725.19;4987227;28;20038;-71
2022/01/09 07:57:31;;;;;;;65.32;14.43;;;;;;;4.69;100.00;99752.44;4989063;28;20057;-72
2022/01/09 07:59:57;;;;;;;32.50;12.63;;;;;;;4.51;100.00;99747.88;4984068;28;20088;-71
2022/01/09 08:02:23;;;;;;;88.07;15.00;;;;;;;4.54;100.00;99752.22;5001824;28;20037;-71
2022/01/09 08:04:49;;;;;;;42.78;13.85;;;;;;;4.64;100.00;99731.59;4989209;28;20060;-72
2022/01/09 08:07:15;;;;;;;30.50;14.10;;;;;;;4.69;99.83;99749.00;4990038;28;20097;-72
2022/01/09 08:09:42;;;;;;;47.20;13.32;;;;;;;4.63;100.00;99749.75;4990473;28;20030;-74
2022/01/09 08:12:10;;;;;;;105.88;18.05;;;;;;;4.60;100.00;99739.34;4986592;28;20093;-75
2022/01/09 08:14:37;;;;;;;87.30;18.70;;;;;;;4.77;100.00;99742.16;4988783;28;20033;-72
2022/01/09 08:17:03;;;;;;;55.13;14.35;;;;;;;4.90;100.00;99717.19;4985232;28;20042;-72
2022/01/09 08:19:30;;;;;;;40.67;14.05;;;;;;;4.88;99.49;99731.91;4986416;28;20152;-74
2022/01/09 08:21:56;;;;;;;36.38;13.60;;;;;;;4.69;98.96;99708.28;4989403;28;20201;-71
2022/01/09 08:24:21;;;;;;;52.75;13.75;;;;;;;4.55;98.87;99723.69;4990214;28;20489;-72
2022/01/09 08:26:47;;;;;;;91.95;17.58;;;;;;;4.86;99.15;99698.06;4993830;28;20045;-72
2022/01/09 08:29:14;;;;;;;37.47;15.85;;;;;;;4.63;98.99;99701.25;4985313;28;20030;-71
2022/01/09 08:31:40;;;;;;;34.60;14.25;;;;;;;4.75;99.30;99718.75;4988418;28;20054;-73
2022/01/09 08:34:05;;;;;;;21.38;14.93;;;;;;;4.60;99.60;99718.56;4984502;28;20049;-71
2022/01/09 08:36:32;;;;;;;29.30;15.48;;;;;;;4.74;99.56;99722.19;4990314;28;20128;-74
2022/01/09 08:38:57;;;;;;;27.30;14.85;;;;;;;4.61;99.61;99700.41;4988715;28;20121;-71
2022/01/09 08:41:23;;;;;;;36.05;13.48;;;;;;;4.53;99.97;99698.53;4994974;28;20038;-71
2022/01/09 08:43:48;;;;;;;26.15;16.63;;;;;;;4.49;100.00;99681.16;4992482;28;20523;-73
2022/01/09 08:46:15;;;;;;;43.65;17.30;;;;;;;5.03;99.97;99706.94;4991982;28;20064;-72
2022/01/09 08:48:41;;;;;;;38.20;17.45;;;;;;;4.76;99.41;99706.63;4990322;28;20050;-72
2022/01/09 08:51:07;;;;;;;35.70;15.93;;;;;;;5.05;99.34;99704.34;4984658;28;20046;-71
2022/01/09 08:53:35;;;;;;;74.57;18.23;;;;;;;5.06;98.90;99688.78;4991060;28;20022;-72
2022/01/09 08:56:02;;;;;;;26.40;16.77;;;;;;;5.36;98.35;99692.53;4993238;28;20470;-72
2022/01/09 08:58:28;;;;;;;27.60;16.58;;;;;;;5.41;97.55;99680.44;4995744;28;20046;-72
2022/01/09 09:01:33;;;;;;;35.58;18.05;;;;;;;5.20;96.93;99698.47;4993121;28;20398;-71
2022/01/09 09:03:58;;;;;;;41.13;17.40;;;;;;;5.14;97.26;99703.59;4998849;28;20042;-72
2022/01/09 09:06:24;;;;;;;25.48;16.02;;;;;;;5.36;97.03;99687.34;4990073;28;20034;-74
2022/01/09 09:08:49;;;;;;;26.25;15.98;;;;;;;5.55;96.37;99682.28;4992896;28;20030;-71
2022/01/09 09:11:15;;;;;;;23.63;15.05;;;;;;;5.49;95.78;99667.50;4999152;28;20080;-71
2022/01/09 09:13:40;;;;;;;31.20;17.25;;;;;;;5.48;95.76;99674.44;4995771;28;20073;-70
2022/01/09 09:16:08;;;;;;;26.35;17.20;;;;;;;5.34;96.44;99691.66;5005969;28;20569;-71
2022/01/09 09:18:34;;;;;;;28.35;16.92;;;;;;;5.25;96.57;99694.16;4994954;28;20046;-71
2022/01/09 09:20:59;;;;;;;23.48;15.60;;;;;;;5.64;95.95;99696.25;4993001;28;20049;-75
2022/01/09 09:23:24;;;;;;;53.45;24.40;;;;;;;5.90;95.02;99700.81;5001719;28;20386;-72
2022/01/09 09:25:51;;;;;;;25.23;17.52;;;;;;;6.01;94.16;99700.88;5015954;28;20061;-71
2022/01/09 09:30:52;;;;;;;22.42;15.32;;;;;;;5.96;94.00;99700.84;5021771;28;20612;-72
2022/01/09 09:33:18;;;;;;;30.25;17.73;;;;;;;6.18;93.61;99695.78;5012957;28;20045;-72
2022/01/09 09:35:43;;;;;;;26.80;17.48;;;;;;;6.06;93.16;99689.66;5012710;28;20389;-71
2022/01/09 09:38:09;;;;;;;24.83;14.98;;;;;;;5.64;94.01;99670.25;5014063;28;20216;-71
2022/01/09 09:40:34;;;;;;;30.08;18.13;;;;;;;5.70;94.47;99659.84;5011704;28;20436;-70
2022/01/09 09:43:00;;;;;;;28.60;17.15;;;;;;;5.66;95.00;99660.69;5012568;28;20077;-72
2022/01/09 09:45:25;;;;;;;26.20;17.80;;;;;;;5.43;95.46;99670.03;5013340;28;20034;-69
2022/01/09 09:47:51;;;;;;;27.73;17.15;;;;;;;5.26;96.15;99630.88;5014340;28;20152;-70
2022/01/09 09:50:19;;;;;;;25.00;17.42;;;;;;;5.89;95.49;99642.63;5015370;28;20033;-71
2022/01/09 09:52:46;;;;;;;27.85;16.88;;;;;;;6.06;94.52;99647.09;5008744;28;20048;-72
2022/01/09 09:55:12;;;;;;;21.55;18.10;;;;;;;6.12;93.61;99663.63;5016330;28;20048;-72
2022/01/09 09:58:11;;;;;;;27.52;17.02;;;;;;;6.10;93.05;99664.50;5018934;28;20075;-70
2022/01/09 10:00:36;;;;;;;21.42;15.98;;;;;;;6.11;92.44;99643.69;5024075;28;20044;-71
2022/01/09 10:03:03;;;;;;;23.63;14.65;;;;;;;6.12;92.18;99640.19;5027426;28;20033;-75
2022/01/09 10:05:38;;;;;;;24.67;16.70;;;;;;;6.04;92.50;99639.31;5014773;28;20026;-71
2022/01/09 10:08:08;;;;;;;25.55;16.65;;;;;;;6.25;92.28;99655.88;5021052;28;20125;-71
2022/01/09 10:14:14;;;;;;;20.42;15.20;;;;;;;6.43;91.39;99648.16;5009985;28;20048;-70
2022/01/09 10:16:39;;;;;;;21.58;16.00;;;;;;;6.46;91.46;99639.47;5018375;28;21966;-71
2022/01/09 10:19:06;;;;;;;21.67;15.73;;;;;;;6.34;91.09;99638.59;5019593;28;20104;-71
2022/01/09 10:21:32;;;;;;;20.33;13.85;;;;;;;6.42;91.75;99640.34;5019790;28;20049;-70
2022/01/09 10:24:00;;;;;;;21.30;14.52;;;;;;;6.52;91.03;99647.34;5018747;28;20046;-70
2022/01/09 10:26:26;;;;;;;20.63;14.35;;;;;;;6.29;90.29;99623.78;5014732;28;20034;-71
2022/01/09 10:28:52;;;;;;;21.38;15.57;;;;;;;6.35;90.68;99636.84;5025464;28;20072;-69
2022/01/09 10:31:19;;;;;;;21.38;14.75;;;;;;;6.29;90.64;99640.28;5018926;28;20485;-69
2022/01/09 10:34:06;;;;;;;22.70;15.70;;;;;;;6.47;90.81;99638.63;5012767;28;20566;-70
2022/01/09 10:36:40;;;;;;;20.15;14.75;;;;;;;6.65;89.66;99632.59;5018484;28;20112;-70
2022/01/09 10:39:18;;;;;;;20.70;14.38;;;;;;;6.52;89.48;99627.34;5008905;28;20056;-70
2022/01/09 10:42:04;;;;;;;20.42;14.93;;;;;;;6.79;89.42;99632.63;5002672;28;20034;-69
2022/01/09 10:44:35;;;;;;;22.92;15.75;;;;;;;6.64;89.40;99626.53;5002107;28;20069;-73
2022/01/09 10:49:00;;;;;;;20.17;15.27;;;;;;;6.57;89.90;99629.09;5024838;27;20611;-73
2022/01/09 10:51:26;;;;;;;20.27;14.30;;;;;;;6.61;89.31;99621.31;5026106;28;20515;-74
2022/01/09 10:57:56;;;;;;;21.38;15.80;;;;;;;6.53;90.33;99623.91;5009657;28;20100;-71
2022/01/09 11:00:23;;;;;;;24.98;15.55;;;;;;;6.32;89.75;99629.88;5029684;28;20127;-70
2022/01/09 11:02:48;;;;;;;23.08;16.60;;;;;;;6.21;90.41;99605.53;5030003;28;20022;-70
2022/01/09 11:05:14;;;;;;;19.98;15.35;;;;;;;6.29;89.91;99608.16;5001858;28;20100;-72
2022/01/09 11:07:54;;;;;;;30.00;16.52;;;;;;;6.45;90.03;99615.16;5013201;28;20050;-70
2022/01/09 11:10:21;;;;;;;24.38;15.85;;;;;;;6.25;89.63;99594.25;5040595;28;20405;-71
2022/01/09 11:12:49;;;;;;;23.67;16.33;;;;;;;6.34;90.15;99599.50;5005345;28;20065;-71
2022/01/09 11:15:19;;;;;;;24.38;15.95;;;;;;;6.37;89.96;99614.28;5006295;28;20055;-70
2022/01/09 11:17:45;;;;;;;21.75;14.98;;;;;;;6.24;89.93;99599.44;5007284;28;20065;-72
2022/01/09 11:20:11;;;;;;;24.25;15.07;;;;;;;6.05;90.51;99601.97;5042128;28;20102;-71
2022/01/09 11:22:36;;;;;;;24.23;14.77;;;;;;;5.97;90.77;99588.06;5006699;28;20489;-70
2022/01/09 11:25:09;;;;;;;25.00;15.95;;;;;;;6.32;91.27;99608.16;5001737;28;20460;-70
2022/01/09 11:27:46;;;;;;;29.98;17.67;;;;;;;6.50;89.73;99582.16;5006172;28;20433;-70
2022/01/09 11:30:57;;;;;;;26.35;18.35;;;;;;;6.35;88.92;99602.97;5005575;28;20068;-71
2022/01/09 11:33:55;;;;;;;22.55;15.55;;;;;;;6.46;89.36;99603.00;4996087;28;20041;-74
2022/01/09 11:36:23;;;;;;;20.70;15.95;;;;;;;6.43;89.58;99601.25;5003033;28;20444;-71
2022/01/09 11:39:12;;;;;;;26.75;15.85;;;;;;;6.26;89.54;99590.78;5006634;28;20045;-72